sensor_id;sensor_type;location;lat;lon;timestamp;P1;durP1;ratioP1;P2;durP2;ratioP2
31128;SDS011;17777;48.770;8.944;2023-06-22T00:01:58;4.05;;;3.58;;
31128;SDS011;17777;48.770;8.944;2023-06-22T00:04:24;3.97;;;3.45;;
31128;SDS011;17777;48.770;8.944;2023-06-22T00:06:51;4.93;;;4.00;;
31128;SDS011;17777;48.770;8.944;2023-06-22T00:09:16;5.32;;;3.63;;
31128;SDS011;17777;48.770;8.944;2023-06-22T00:11:42;3.67;;;3.33;;
31128;SDS011;17777;48.770;8.944;2023-06-22T00:14:08;4.88;;;3.55;;
31128;SDS011;17777;48.770;8.944;2023-06-22T00:16:34;3.95;;;3.55;;
31128;SDS011;17777;48.770;8.944;2023-06-22T00:19:00;4.05;;;3.60;;
31128;SDS011;17777;48.770;8.944;2023-06-22T00:21:27;4.18;;;3.53;;
31128;SDS011;17777;48.770;8.944;2023-06-22T00:23:53;5.32;;;3.85;;
31128;SDS011;17777;48.770;8.944;2023-06-22T00:26:19;3.55;;;3.25;;
31128;SDS011;17777;48.770;8.944;2023-06-22T00:28:46;4.40;;;3.70;;
31128;SDS011;17777;48.770;8.944;2023-06-22T00:31:12;6.50;;;3.60;;
31128;SDS011;17777;48.770;8.944;2023-06-22T00:33:38;4.43;;;3.70;;
31128;SDS011;17777;48.770;8.944;2023-06-22T00:36:05;3.80;;;3.42;;
31128;SDS011;17777;48.770;8.944;2023-06-22T00:38:33;3.90;;;3.58;;
31128;SDS011;17777;48.770;8.944;2023-06-22T00:41:00;3.75;;;3.40;;
31128;SDS011;17777;48.770;8.944;2023-06-22T00:43:26;4.75;;;4.10;;
31128;SDS011;17777;48.770;8.944;2023-06-22T00:45:52;3.70;;;3.40;;
31128;SDS011;17777;48.770;8.944;2023-06-22T00:48:21;4.45;;;3.83;;
31128;SDS011;17777;48.770;8.944;2023-06-22T00:50:47;4.32;;;3.80;;
31128;SDS011;17777;48.770;8.944;2023-06-22T00:53:16;5.20;;;3.90;;
31128;SDS011;17777;48.770;8.944;2023-06-22T00:55:43;4.72;;;3.47;;
31128;SDS011;17777;48.770;8.944;2023-06-22T00:58:12;5.60;;;4.07;;
31128;SDS011;17777;48.770;8.944;2023-06-22T01:00:40;5.28;;;4.28;;
31128;SDS011;17777;48.770;8.944;2023-06-22T01:03:06;4.85;;;4.35;;
31128;SDS011;17777;48.770;8.944;2023-06-22T01:05:33;6.55;;;4.82;;
31128;SDS011;17777;48.770;8.944;2023-06-22T01:10:50;4.68;;;4.05;;
31128;SDS011;17777;48.770;8.944;2023-06-22T01:16:20;5.97;;;4.15;;
31128;SDS011;17777;48.770;8.944;2023-06-22T01:18:50;4.82;;;4.07;;
31128;SDS011;17777;48.770;8.944;2023-06-22T01:21:20;4.55;;;3.88;;
31128;SDS011;17777;48.770;8.944;2023-06-22T01:23:56;5.57;;;4.05;;
31128;SDS011;17777;48.770;8.944;2023-06-22T01:26:57;8.88;;;3.92;;
31128;SDS011;17777;48.770;8.944;2023-06-22T01:29:51;4.07;;;3.67;;
31128;SDS011;17777;48.770;8.944;2023-06-22T01:32:26;4.75;;;3.63;;
31128;SDS011;17777;48.770;8.944;2023-06-22T01:34:58;5.63;;;3.53;;
31128;SDS011;17777;48.770;8.944;2023-06-22T01:37:29;6.57;;;4.03;;
31128;SDS011;17777;48.770;8.944;2023-06-22T01:39:59;4.22;;;3.60;;
31128;SDS011;17777;48.770;8.944;2023-06-22T01:42:26;4.82;;;4.20;;
31128;SDS011;17777;48.770;8.944;2023-06-22T01:44:53;4.63;;;3.60;;
31128;SDS011;17777;48.770;8.944;2023-06-22T01:47:22;4.75;;;3.35;;
31128;SDS011;17777;48.770;8.944;2023-06-22T01:49:49;4.32;;;3.63;;
31128;SDS011;17777;48.770;8.944;2023-06-22T01:52:19;3.92;;;3.53;;
31128;SDS011;17777;48.770;8.944;2023-06-22T01:54:48;4.38;;;3.90;;
31128;SDS011;17777;48.770;8.944;2023-06-22T01:57:14;7.60;;;4.00;;
31128;SDS011;17777;48.770;8.944;2023-06-22T01:59:47;5.35;;;3.95;;
31128;SDS011;17777;48.770;8.944;2023-06-22T02:03:01;4.57;;;4.03;;
31128;SDS011;17777;48.770;8.944;2023-06-22T02:05:31;4.45;;;3.40;;
31128;SDS011;17777;48.770;8.944;2023-06-22T02:08:06;4.20;;;3.80;;
31128;SDS011;17777;48.770;8.944;2023-06-22T02:10:43;4.30;;;3.70;;
31128;SDS011;17777;48.770;8.944;2023-06-22T02:13:10;5.10;;;4.10;;
31128;SDS011;17777;48.770;8.944;2023-06-22T02:15:37;4.20;;;3.75;;
31128;SDS011;17777;48.770;8.944;2023-06-22T02:18:03;6.68;;;4.15;;
31128;SDS011;17777;48.770;8.944;2023-06-22T02:20:30;4.10;;;3.70;;
31128;SDS011;17777;48.770;8.944;2023-06-22T02:22:55;5.22;;;3.85;;
31128;SDS011;17777;48.770;8.944;2023-06-22T02:25:21;5.13;;;3.63;;
31128;SDS011;17777;48.770;8.944;2023-06-22T02:27:47;5.40;;;3.92;;
31128;SDS011;17777;48.770;8.944;2023-06-22T02:30:15;4.82;;;3.67;;
31128;SDS011;17777;48.770;8.944;2023-06-22T02:32:41;9.05;;;3.80;;
31128;SDS011;17777;48.770;8.944;2023-06-22T02:35:08;4.88;;;3.88;;
31128;SDS011;17777;48.770;8.944;2023-06-22T02:37:35;5.88;;;3.47;;
31128;SDS011;17777;48.770;8.944;2023-06-22T02:40:07;6.43;;;3.28;;
31128;SDS011;17777;48.770;8.944;2023-06-22T02:42:37;5.20;;;3.53;;
31128;SDS011;17777;48.770;8.944;2023-06-22T02:45:05;4.63;;;3.67;;
31128;SDS011;17777;48.770;8.944;2023-06-22T02:47:31;5.30;;;3.80;;
31128;SDS011;17777;48.770;8.944;2023-06-22T02:49:57;4.32;;;3.78;;
31128;SDS011;17777;48.770;8.944;2023-06-22T02:52:24;4.95;;;3.75;;
31128;SDS011;17777;48.770;8.944;2023-06-22T02:54:49;5.45;;;3.80;;
31128;SDS011;17777;48.770;8.944;2023-06-22T02:57:15;4.68;;;3.97;;
31128;SDS011;17777;48.770;8.944;2023-06-22T02:59:42;6.28;;;3.55;;
31128;SDS011;17777;48.770;8.944;2023-06-22T03:02:10;3.78;;;3.47;;
31128;SDS011;17777;48.770;8.944;2023-06-22T03:04:37;5.25;;;3.83;;
31128;SDS011;17777;48.770;8.944;2023-06-22T03:07:02;4.45;;;3.95;;
31128;SDS011;17777;48.770;8.944;2023-06-22T03:09:30;5.20;;;4.28;;
31128;SDS011;17777;48.770;8.944;2023-06-22T03:11:56;7.35;;;4.57;;
31128;SDS011;17777;48.770;8.944;2023-06-22T03:14:26;4.35;;;3.95;;
31128;SDS011;17777;48.770;8.944;2023-06-22T03:16:52;5.53;;;4.07;;
31128;SDS011;17777;48.770;8.944;2023-06-22T03:19:18;4.25;;;3.85;;
31128;SDS011;17777;48.770;8.944;2023-06-22T03:21:46;4.50;;;3.78;;
31128;SDS011;17777;48.770;8.944;2023-06-22T03:24:12;4.90;;;3.72;;
31128;SDS011;17777;48.770;8.944;2023-06-22T03:26:38;4.70;;;3.67;;
31128;SDS011;17777;48.770;8.944;2023-06-22T03:29:03;6.38;;;3.45;;
31128;SDS011;17777;48.770;8.944;2023-06-22T03:31:30;4.82;;;3.60;;
31128;SDS011;17777;48.770;8.944;2023-06-22T03:33:56;4.13;;;3.58;;
31128;SDS011;17777;48.770;8.944;2023-06-22T03:36:22;5.40;;;3.60;;
31128;SDS011;17777;48.770;8.944;2023-06-22T03:38:49;8.52;;;3.95;;
31128;SDS011;17777;48.770;8.944;2023-06-22T03:41:16;4.55;;;3.53;;
31128;SDS011;17777;48.770;8.944;2023-06-22T03:43:42;4.45;;;3.47;;
31128;SDS011;17777;48.770;8.944;2023-06-22T03:46:09;5.55;;;3.72;;
31128;SDS011;17777;48.770;8.944;2023-06-22T03:48:34;4.72;;;3.30;;
31128;SDS011;17777;48.770;8.944;2023-06-22T03:51:01;7.57;;;3.80;;
31128;SDS011;17777;48.770;8.944;2023-06-22T03:53:28;5.25;;;3.10;;
31128;SDS011;17777;48.770;8.944;2023-06-22T03:55:54;5.38;;;3.75;;
31128;SDS011;17777;48.770;8.944;2023-06-22T03:58:21;4.35;;;3.25;;
31128;SDS011;17777;48.770;8.944;2023-06-22T04:00:51;4.47;;;3.55;;
31128;SDS011;17777;48.770;8.944;2023-06-22T04:03:18;5.07;;;3.20;;
31128;SDS011;17777;48.770;8.944;2023-06-22T04:05:44;6.80;;;3.80;;
31128;SDS011;17777;48.770;8.944;2023-06-22T04:08:11;4.90;;;3.58;;
31128;SDS011;17777;48.770;8.944;2023-06-22T04:10:38;5.90;;;3.88;;
31128;SDS011;17777;48.770;8.944;2023-06-22T04:13:04;7.63;;;4.45;;
31128;SDS011;17777;48.770;8.944;2023-06-22T04:15:30;7.18;;;4.03;;
31128;SDS011;17777;48.770;8.944;2023-06-22T04:17:56;6.13;;;3.88;;
31128;SDS011;17777;48.770;8.944;2023-06-22T04:20:23;6.60;;;3.67;;
31128;SDS011;17777;48.770;8.944;2023-06-22T04:22:52;7.32;;;4.05;;
31128;SDS011;17777;48.770;8.944;2023-06-22T04:25:19;9.68;;;4.22;;
31128;SDS011;17777;48.770;8.944;2023-06-22T04:27:45;8.15;;;4.30;;
31128;SDS011;17777;48.770;8.944;2023-06-22T04:30:11;5.38;;;3.83;;
31128;SDS011;17777;48.770;8.944;2023-06-22T04:32:40;6.43;;;3.35;;
31128;SDS011;17777;48.770;8.944;2023-06-22T04:35:06;10.73;;;4.28;;
31128;SDS011;17777;48.770;8.944;2023-06-22T04:37:32;7.55;;;3.63;;
31128;SDS011;17777;48.770;8.944;2023-06-22T04:39:59;6.38;;;4.15;;
31128;SDS011;17777;48.770;8.944;2023-06-22T04:42:28;4.65;;;3.95;;
31128;SDS011;17777;48.770;8.944;2023-06-22T04:44:54;5.93;;;4.15;;
31128;SDS011;17777;48.770;8.944;2023-06-22T04:47:20;5.97;;;4.40;;
31128;SDS011;17777;48.770;8.944;2023-06-22T04:49:45;6.30;;;3.95;;
31128;SDS011;17777;48.770;8.944;2023-06-22T04:52:12;7.15;;;4.00;;
31128;SDS011;17777;48.770;8.944;2023-06-22T04:54:39;8.10;;;4.20;;
31128;SDS011;17777;48.770;8.944;2023-06-22T04:57:12;6.68;;;4.20;;
31128;SDS011;17777;48.770;8.944;2023-06-22T04:59:39;4.05;;;3.50;;
31128;SDS011;17777;48.770;8.944;2023-06-22T05:02:06;5.82;;;4.20;;
31128;SDS011;17777;48.770;8.944;2023-06-22T05:04:33;8.77;;;3.97;;
31128;SDS011;17777;48.770;8.944;2023-06-22T05:07:01;6.15;;;4.00;;
31128;SDS011;17777;48.770;8.944;2023-06-22T05:09:28;5.68;;;4.20;;
31128;SDS011;17777;48.770;8.944;2023-06-22T05:11:54;6.43;;;4.50;;
31128;SDS011;17777;48.770;8.944;2023-06-22T05:14:24;5.32;;;4.40;;
31128;SDS011;17777;48.770;8.944;2023-06-22T05:16:50;6.13;;;4.22;;
31128;SDS011;17777;48.770;8.944;2023-06-22T05:19:17;5.50;;;4.45;;
31128;SDS011;17777;48.770;8.944;2023-06-22T05:21:42;4.88;;;4.32;;
31128;SDS011;17777;48.770;8.944;2023-06-22T05:24:08;7.72;;;4.30;;
31128;SDS011;17777;48.770;8.944;2023-06-22T05:26:34;4.68;;;4.28;;
31128;SDS011;17777;48.770;8.944;2023-06-22T05:29:01;5.65;;;4.43;;
31128;SDS011;17777;48.770;8.944;2023-06-22T05:31:28;6.35;;;4.65;;
31128;SDS011;17777;48.770;8.944;2023-06-22T05:33:54;4.72;;;4.28;;
31128;SDS011;17777;48.770;8.944;2023-06-22T05:36:21;4.93;;;4.38;;
31128;SDS011;17777;48.770;8.944;2023-06-22T05:38:50;5.28;;;4.35;;
31128;SDS011;17777;48.770;8.944;2023-06-22T05:41:17;5.93;;;4.25;;
31128;SDS011;17777;48.770;8.944;2023-06-22T05:43:43;3.83;;;3.45;;
31128;SDS011;17777;48.770;8.944;2023-06-22T05:46:09;4.78;;;4.07;;
31128;SDS011;17777;48.770;8.944;2023-06-22T05:48:34;5.65;;;4.15;;
31128;SDS011;17777;48.770;8.944;2023-06-22T05:51:00;4.70;;;4.30;;
31128;SDS011;17777;48.770;8.944;2023-06-22T05:53:26;4.90;;;3.92;;
31128;SDS011;17777;48.770;8.944;2023-06-22T05:55:52;6.40;;;3.95;;
31128;SDS011;17777;48.770;8.944;2023-06-22T05:58:18;4.45;;;4.05;;
31128;SDS011;17777;48.770;8.944;2023-06-22T06:00:44;3.75;;;3.28;;
31128;SDS011;17777;48.770;8.944;2023-06-22T06:03:10;5.25;;;4.40;;
31128;SDS011;17777;48.770;8.944;2023-06-22T06:05:36;6.78;;;3.80;;
31128;SDS011;17777;48.770;8.944;2023-06-22T06:08:03;5.65;;;4.10;;
31128;SDS011;17777;48.770;8.944;2023-06-22T06:10:31;4.50;;;3.92;;
31128;SDS011;17777;48.770;8.944;2023-06-22T06:12:58;5.35;;;3.70;;
31128;SDS011;17777;48.770;8.944;2023-06-22T06:15:27;4.32;;;3.58;;
31128;SDS011;17777;48.770;8.944;2023-06-22T06:17:53;5.05;;;3.63;;
31128;SDS011;17777;48.770;8.944;2023-06-22T06:20:20;5.25;;;3.42;;
31128;SDS011;17777;48.770;8.944;2023-06-22T06:22:48;4.65;;;3.90;;
31128;SDS011;17777;48.770;8.944;2023-06-22T06:25:14;4.43;;;3.25;;
31128;SDS011;17777;48.770;8.944;2023-06-22T06:27:44;4.03;;;3.45;;
31128;SDS011;17777;48.770;8.944;2023-06-22T06:30:12;4.35;;;3.30;;
31128;SDS011;17777;48.770;8.944;2023-06-22T06:32:41;4.25;;;3.55;;
31128;SDS011;17777;48.770;8.944;2023-06-22T06:35:08;3.30;;;2.88;;
31128;SDS011;17777;48.770;8.944;2023-06-22T06:37:36;5.32;;;2.78;;
31128;SDS011;17777;48.770;8.944;2023-06-22T06:40:03;2.80;;;2.60;;
31128;SDS011;17777;48.770;8.944;2023-06-22T06:42:33;2.65;;;2.40;;
31128;SDS011;17777;48.770;8.944;2023-06-22T06:44:59;3.80;;;2.50;;
31128;SDS011;17777;48.770;8.944;2023-06-22T06:47:25;5.47;;;2.80;;
31128;SDS011;17777;48.770;8.944;2023-06-22T06:49:51;3.88;;;2.58;;
31128;SDS011;17777;48.770;8.944;2023-06-22T06:52:17;3.80;;;2.58;;
31128;SDS011;17777;48.770;8.944;2023-06-22T06:54:44;3.28;;;2.60;;
31128;SDS011;17777;48.770;8.944;2023-06-22T06:57:10;3.05;;;2.75;;
31128;SDS011;17777;48.770;8.944;2023-06-22T06:59:38;3.90;;;2.78;;
31128;SDS011;17777;48.770;8.944;2023-06-22T07:02:04;5.50;;;2.38;;
31128;SDS011;17777;48.770;8.944;2023-06-22T07:04:30;2.97;;;2.30;;
31128;SDS011;17777;48.770;8.944;2023-06-22T07:06:56;3.85;;;2.78;;
31128;SDS011;17777;48.770;8.944;2023-06-22T07:09:21;3.90;;;2.85;;
31128;SDS011;17777;48.770;8.944;2023-06-22T07:11:47;5.28;;;2.83;;
31128;SDS011;17777;48.770;8.944;2023-06-22T07:14:13;4.72;;;2.70;;
31128;SDS011;17777;48.770;8.944;2023-06-22T07:16:38;4.43;;;2.80;;
31128;SDS011;17777;48.770;8.944;2023-06-22T07:19:04;2.83;;;2.63;;
31128;SDS011;17777;48.770;8.944;2023-06-22T07:21:30;3.55;;;2.70;;
31128;SDS011;17777;48.770;8.944;2023-06-22T07:23:56;4.55;;;3.03;;
31128;SDS011;17777;48.770;8.944;2023-06-22T07:26:22;3.20;;;2.50;;
31128;SDS011;17777;48.770;8.944;2023-06-22T07:28:47;3.10;;;2.53;;
31128;SDS011;17777;48.770;8.944;2023-06-22T07:31:13;2.70;;;2.10;;
31128;SDS011;17777;48.770;8.944;2023-06-22T07:33:39;4.20;;;2.33;;
31128;SDS011;17777;48.770;8.944;2023-06-22T07:36:04;4.75;;;2.42;;
31128;SDS011;17777;48.770;8.944;2023-06-22T07:38:33;3.42;;;2.20;;
31128;SDS011;17777;48.770;8.944;2023-06-22T07:41:00;9.95;;;2.22;;
31128;SDS011;17777;48.770;8.944;2023-06-22T07:43:30;3.70;;;2.30;;
31128;SDS011;17777;48.770;8.944;2023-06-22T07:45:58;4.68;;;2.25;;
31128;SDS011;17777;48.770;8.944;2023-06-22T07:48:23;4.10;;;2.65;;
31128;SDS011;17777;48.770;8.944;2023-06-22T07:50:49;2.50;;;2.28;;
31128;SDS011;17777;48.770;8.944;2023-06-22T07:53:15;4.03;;;2.45;;
31128;SDS011;17777;48.770;8.944;2023-06-22T07:55:41;4.55;;;2.85;;
31128;SDS011;17777;48.770;8.944;2023-06-22T07:58:07;3.45;;;2.35;;
31128;SDS011;17777;48.770;8.944;2023-06-22T08:00:33;2.47;;;2.28;;
31128;SDS011;17777;48.770;8.944;2023-06-22T08:02:59;4.03;;;2.75;;
31128;SDS011;17777;48.770;8.944;2023-06-22T08:05:25;5.97;;;2.33;;
31128;SDS011;17777;48.770;8.944;2023-06-22T08:07:51;5.20;;;2.70;;
31128;SDS011;17777;48.770;8.944;2023-06-22T08:10:18;3.70;;;2.42;;
31128;SDS011;17777;48.770;8.944;2023-06-22T08:12:44;2.72;;;2.22;;
31128;SDS011;17777;48.770;8.944;2023-06-22T08:15:10;4.47;;;2.88;;
31128;SDS011;17777;48.770;8.944;2023-06-22T08:17:36;3.65;;;2.80;;
31128;SDS011;17777;48.770;8.944;2023-06-22T08:20:03;3.47;;;2.67;;
31128;SDS011;17777;48.770;8.944;2023-06-22T08:22:39;6.18;;;2.42;;
31128;SDS011;17777;48.770;8.944;2023-06-22T08:25:08;4.07;;;2.90;;
31128;SDS011;17777;48.770;8.944;2023-06-22T08:27:35;5.03;;;2.65;;
31128;SDS011;17777;48.770;8.944;2023-06-22T08:30:01;5.18;;;2.55;;
31128;SDS011;17777;48.770;8.944;2023-06-22T08:32:28;3.40;;;2.33;;
31128;SDS011;17777;48.770;8.944;2023-06-22T08:34:54;2.47;;;2.22;;
31128;SDS011;17777;48.770;8.944;2023-06-22T08:37:21;4.55;;;2.72;;
31128;SDS011;17777;48.770;8.944;2023-06-22T08:39:55;7.45;;;2.50;;
31128;SDS011;17777;48.770;8.944;2023-06-22T08:42:26;4.03;;;2.38;;
31128;SDS011;17777;48.770;8.944;2023-06-22T08:44:52;6.30;;;2.28;;
31128;SDS011;17777;48.770;8.944;2023-06-22T08:47:18;11.55;;;2.83;;
31128;SDS011;17777;48.770;8.944;2023-06-22T08:49:45;5.10;;;2.55;;
31128;SDS011;17777;48.770;8.944;2023-06-22T08:52:10;3.75;;;2.60;;
31128;SDS011;17777;48.770;8.944;2023-06-22T08:54:36;6.35;;;2.95;;
31128;SDS011;17777;48.770;8.944;2023-06-22T08:57:02;5.43;;;2.72;;
31128;SDS011;17777;48.770;8.944;2023-06-22T08:59:28;7.43;;;2.90;;
31128;SDS011;17777;48.770;8.944;2023-06-22T09:01:54;4.25;;;2.70;;
31128;SDS011;17777;48.770;8.944;2023-06-22T09:04:20;3.53;;;2.47;;
31128;SDS011;17777;48.770;8.944;2023-06-22T09:06:47;5.05;;;2.40;;
31128;SDS011;17777;48.770;8.944;2023-06-22T09:09:15;4.85;;;2.30;;
31128;SDS011;17777;48.770;8.944;2023-06-22T09:11:41;2.85;;;2.40;;
31128;SDS011;17777;48.770;8.944;2023-06-22T09:14:07;3.17;;;2.65;;
31128;SDS011;17777;48.770;8.944;2023-06-22T09:16:34;6.10;;;2.60;;
31128;SDS011;17777;48.770;8.944;2023-06-22T09:19:00;5.43;;;2.63;;
31128;SDS011;17777;48.770;8.944;2023-06-22T09:21:26;3.65;;;2.58;;
31128;SDS011;17777;48.770;8.944;2023-06-22T09:23:52;3.60;;;2.83;;
31128;SDS011;17777;48.770;8.944;2023-06-22T09:26:18;5.40;;;2.90;;
31128;SDS011;17777;48.770;8.944;2023-06-22T09:28:44;2.78;;;2.28;;
31128;SDS011;17777;48.770;8.944;2023-06-22T09:31:10;3.67;;;2.40;;
31128;SDS011;17777;48.770;8.944;2023-06-22T09:33:36;3.78;;;2.65;;
31128;SDS011;17777;48.770;8.944;2023-06-22T09:36:05;5.25;;;2.88;;
31128;SDS011;17777;48.770;8.944;2023-06-22T09:38:35;5.07;;;2.92;;
31128;SDS011;17777;48.770;8.944;2023-06-22T09:41:05;3.50;;;2.60;;
31128;SDS011;17777;48.770;8.944;2023-06-22T09:43:31;5.75;;;2.63;;
31128;SDS011;17777;48.770;8.944;2023-06-22T09:45:57;3.45;;;2.65;;
31128;SDS011;17777;48.770;8.944;2023-06-22T09:48:23;5.07;;;2.63;;
31128;SDS011;17777;48.770;8.944;2023-06-22T09:50:49;4.75;;;3.00;;
31128;SDS011;17777;48.770;8.944;2023-06-22T09:53:15;3.90;;;2.60;;
31128;SDS011;17777;48.770;8.944;2023-06-22T09:55:41;4.90;;;2.73;;
31128;SDS011;17777;48.770;8.944;2023-06-22T09:58:06;3.60;;;2.40;;
31128;SDS011;17777;48.770;8.944;2023-06-22T10:00:33;5.38;;;2.92;;
31128;SDS011;17777;48.770;8.944;2023-06-22T10:02:59;3.10;;;2.50;;
31128;SDS011;17777;48.770;8.944;2023-06-22T10:05:25;4.68;;;2.70;;
31128;SDS011;17777;48.770;8.944;2023-06-22T10:07:50;3.67;;;2.55;;
31128;SDS011;17777;48.770;8.944;2023-06-22T10:10:17;8.55;;;2.90;;
31128;SDS011;17777;48.770;8.944;2023-06-22T10:12:46;5.45;;;2.60;;
31128;SDS011;17777;48.770;8.944;2023-06-22T10:15:20;4.00;;;2.70;;
31128;SDS011;17777;48.770;8.944;2023-06-22T10:17:46;5.25;;;3.38;;
31128;SDS011;17777;48.770;8.944;2023-06-22T10:20:12;5.22;;;2.67;;
31128;SDS011;17777;48.770;8.944;2023-06-22T10:22:42;5.30;;;2.65;;
31128;SDS011;17777;48.770;8.944;2023-06-22T10:25:10;4.63;;;2.50;;
31128;SDS011;17777;48.770;8.944;2023-06-22T10:27:37;7.00;;;2.78;;
31128;SDS011;17777;48.770;8.944;2023-06-22T10:30:09;4.03;;;2.28;;
31128;SDS011;17777;48.770;8.944;2023-06-22T10:32:40;5.97;;;2.70;;
31128;SDS011;17777;48.770;8.944;2023-06-22T10:35:10;6.75;;;2.88;;
31128;SDS011;17777;48.770;8.944;2023-06-22T10:37:38;4.88;;;2.83;;
31128;SDS011;17777;48.770;8.944;2023-06-22T10:40:04;4.03;;;3.03;;
31128;SDS011;17777;48.770;8.944;2023-06-22T10:42:31;3.97;;;2.63;;
31128;SDS011;17777;48.770;8.944;2023-06-22T10:44:57;4.50;;;2.42;;
31128;SDS011;17777;48.770;8.944;2023-06-22T10:47:22;4.75;;;2.88;;
31128;SDS011;17777;48.770;8.944;2023-06-22T10:49:48;5.45;;;2.90;;
31128;SDS011;17777;48.770;8.944;2023-06-22T10:52:14;6.40;;;2.70;;
31128;SDS011;17777;48.770;8.944;2023-06-22T10:54:40;6.78;;;2.97;;
31128;SDS011;17777;48.770;8.944;2023-06-22T10:57:06;4.38;;;2.45;;
31128;SDS011;17777;48.770;8.944;2023-06-22T10:59:32;4.85;;;2.83;;
31128;SDS011;17777;48.770;8.944;2023-06-22T11:01:58;5.70;;;2.63;;
31128;SDS011;17777;48.770;8.944;2023-06-22T11:04:24;4.60;;;2.70;;
31128;SDS011;17777;48.770;8.944;2023-06-22T11:06:50;6.63;;;2.97;;
31128;SDS011;17777;48.770;8.944;2023-06-22T11:09:16;4.72;;;3.00;;
31128;SDS011;17777;48.770;8.944;2023-06-22T11:11:46;3.53;;;2.42;;
31128;SDS011;17777;48.770;8.944;2023-06-22T11:14:12;6.05;;;2.85;;
31128;SDS011;17777;48.770;8.944;2023-06-22T11:16:38;5.78;;;2.63;;
31128;SDS011;17777;48.770;8.944;2023-06-22T11:19:04;3.35;;;2.90;;
31128;SDS011;17777;48.770;8.944;2023-06-22T11:21:30;3.45;;;2.70;;
31128;SDS011;17777;48.770;8.944;2023-06-22T11:23:57;11.02;;;3.35;;
31128;SDS011;17777;48.770;8.944;2023-06-22T11:26:24;4.60;;;2.28;;
31128;SDS011;17777;48.770;8.944;2023-06-22T11:28:53;4.35;;;2.70;;
31128;SDS011;17777;48.770;8.944;2023-06-22T11:31:19;4.53;;;2.67;;
31128;SDS011;17777;48.770;8.944;2023-06-22T11:33:45;4.15;;;2.38;;
31128;SDS011;17777;48.770;8.944;2023-06-22T11:36:12;3.38;;;2.38;;
31128;SDS011;17777;48.770;8.944;2023-06-22T11:38:38;3.38;;;2.53;;
31128;SDS011;17777;48.770;8.944;2023-06-22T11:41:07;4.90;;;2.75;;
31128;SDS011;17777;48.770;8.944;2023-06-22T11:43:34;3.67;;;2.70;;
31128;SDS011;17777;48.770;8.944;2023-06-22T11:46:01;4.63;;;2.67;;
31128;SDS011;17777;48.770;8.944;2023-06-22T11:48:28;7.03;;;3.10;;
31128;SDS011;17777;48.770;8.944;2023-06-22T11:50:54;6.93;;;3.28;;
31128;SDS011;17777;48.770;8.944;2023-06-22T11:53:20;5.68;;;2.70;;
31128;SDS011;17777;48.770;8.944;2023-06-22T11:55:49;4.10;;;2.63;;
31128;SDS011;17777;48.770;8.944;2023-06-22T11:58:15;7.28;;;3.35;;
31128;SDS011;17777;48.770;8.944;2023-06-22T12:00:40;6.22;;;3.80;;
31128;SDS011;17777;48.770;8.944;2023-06-22T12:03:07;8.32;;;3.17;;
31128;SDS011;17777;48.770;8.944;2023-06-22T12:05:33;5.80;;;3.20;;
31128;SDS011;17777;48.770;8.944;2023-06-22T12:07:59;4.65;;;2.78;;
31128;SDS011;17777;48.770;8.944;2023-06-22T12:10:25;3.40;;;2.78;;
31128;SDS011;17777;48.770;8.944;2023-06-22T12:12:52;5.00;;;2.90;;
31128;SDS011;17777;48.770;8.944;2023-06-22T12:15:18;7.45;;;2.95;;
31128;SDS011;17777;48.770;8.944;2023-06-22T12:17:44;3.78;;;2.85;;
31128;SDS011;17777;48.770;8.944;2023-06-22T12:20:10;6.72;;;3.40;;
31128;SDS011;17777;48.770;8.944;2023-06-22T12:22:36;5.55;;;3.20;;
31128;SDS011;17777;48.770;8.944;2023-06-22T12:25:03;6.57;;;2.85;;
31128;SDS011;17777;48.770;8.944;2023-06-22T12:27:29;5.07;;;2.95;;
31128;SDS011;17777;48.770;8.944;2023-06-22T12:29:55;5.03;;;2.95;;
31128;SDS011;17777;48.770;8.944;2023-06-22T12:32:22;4.03;;;3.25;;
31128;SDS011;17777;48.770;8.944;2023-06-22T12:34:47;4.70;;;2.75;;
31128;SDS011;17777;48.770;8.944;2023-06-22T12:37:13;4.30;;;2.63;;
31128;SDS011;17777;48.770;8.944;2023-06-22T12:39:40;8.45;;;3.10;;
31128;SDS011;17777;48.770;8.944;2023-06-22T12:42:06;3.45;;;2.80;;
31128;SDS011;17777;48.770;8.944;2023-06-22T12:44:37;5.22;;;3.17;;
31128;SDS011;17777;48.770;8.944;2023-06-22T12:47:04;4.78;;;2.85;;
31128;SDS011;17777;48.770;8.944;2023-06-22T12:49:31;4.45;;;2.88;;
31128;SDS011;17777;48.770;8.944;2023-06-22T12:51:57;5.22;;;2.78;;
31128;SDS011;17777;48.770;8.944;2023-06-22T12:54:22;5.30;;;2.95;;
31128;SDS011;17777;48.770;8.944;2023-06-22T12:56:49;4.35;;;3.03;;
31128;SDS011;17777;48.770;8.944;2023-06-22T12:59:15;3.65;;;2.67;;
31128;SDS011;17777;48.770;8.944;2023-06-22T13:01:42;4.28;;;2.92;;
31128;SDS011;17777;48.770;8.944;2023-06-22T13:04:10;4.30;;;2.88;;
31128;SDS011;17777;48.770;8.944;2023-06-22T13:06:43;4.70;;;2.72;;
31128;SDS011;17777;48.770;8.944;2023-06-22T13:09:13;6.28;;;2.83;;
31128;SDS011;17777;48.770;8.944;2023-06-22T13:11:41;5.35;;;2.95;;
31128;SDS011;17777;48.770;8.944;2023-06-22T13:14:08;3.13;;;2.80;;
31128;SDS011;17777;48.770;8.944;2023-06-22T13:16:33;5.35;;;2.92;;
31128;SDS011;17777;48.770;8.944;2023-06-22T13:18:59;4.18;;;2.78;;
31128;SDS011;17777;48.770;8.944;2023-06-22T13:21:25;4.13;;;3.13;;
31128;SDS011;17777;48.770;8.944;2023-06-22T13:23:51;5.07;;;3.30;;
31128;SDS011;17777;48.770;8.944;2023-06-22T13:26:17;7.68;;;2.97;;
31128;SDS011;17777;48.770;8.944;2023-06-22T13:28:43;6.63;;;3.05;;
31128;SDS011;17777;48.770;8.944;2023-06-22T13:31:09;4.50;;;2.80;;
31128;SDS011;17777;48.770;8.944;2023-06-22T13:33:34;3.35;;;2.67;;
31128;SDS011;17777;48.770;8.944;2023-06-22T13:36:00;3.83;;;3.00;;
31128;SDS011;17777;48.770;8.944;2023-06-22T13:38:28;4.65;;;2.67;;
31128;SDS011;17777;48.770;8.944;2023-06-22T13:40:55;9.13;;;3.17;;
31128;SDS011;17777;48.770;8.944;2023-06-22T13:43:23;3.60;;;2.65;;
31128;SDS011;17777;48.770;8.944;2023-06-22T13:45:49;4.45;;;2.63;;
31128;SDS011;17777;48.770;8.944;2023-06-22T13:48:15;3.22;;;2.45;;
31128;SDS011;17777;48.770;8.944;2023-06-22T13:50:41;3.42;;;2.72;;
31128;SDS011;17777;48.770;8.944;2023-06-22T13:53:06;4.32;;;2.42;;
31128;SDS011;17777;48.770;8.944;2023-06-22T13:55:32;3.33;;;2.38;;
31128;SDS011;17777;48.770;8.944;2023-06-22T13:57:58;3.25;;;2.50;;
31128;SDS011;17777;48.770;8.944;2023-06-22T14:00:24;5.15;;;2.63;;
31128;SDS011;17777;48.770;8.944;2023-06-22T14:02:49;6.65;;;2.22;;
31128;SDS011;17777;48.770;8.944;2023-06-22T14:05:16;4.95;;;3.15;;
31128;SDS011;17777;48.770;8.944;2023-06-22T14:07:42;3.65;;;2.85;;
31128;SDS011;17777;48.770;8.944;2023-06-22T14:10:08;5.38;;;2.72;;
31128;SDS011;17777;48.770;8.944;2023-06-22T14:12:34;5.05;;;2.70;;
31128;SDS011;17777;48.770;8.944;2023-06-22T14:15:00;5.25;;;2.55;;
31128;SDS011;17777;48.770;8.944;2023-06-22T14:17:25;5.50;;;2.78;;
31128;SDS011;17777;48.770;8.944;2023-06-22T14:19:52;5.47;;;2.60;;
31128;SDS011;17777;48.770;8.944;2023-06-22T14:22:21;5.03;;;2.90;;
31128;SDS011;17777;48.770;8.944;2023-06-22T14:24:47;4.45;;;2.78;;
31128;SDS011;17777;48.770;8.944;2023-06-22T14:27:14;3.45;;;2.20;;
31128;SDS011;17777;48.770;8.944;2023-06-22T14:29:40;4.93;;;2.20;;
31128;SDS011;17777;48.770;8.944;2023-06-22T14:32:06;7.07;;;1.65;;
31128;SDS011;17777;48.770;8.944;2023-06-22T14:34:33;3.70;;;1.58;;
31128;SDS011;17777;48.770;8.944;2023-06-22T14:37:05;4.72;;;1.88;;
31128;SDS011;17777;48.770;8.944;2023-06-22T14:39:32;2.90;;;1.63;;
31128;SDS011;17777;48.770;8.944;2023-06-22T14:41:58;3.88;;;1.63;;
31128;SDS011;17777;48.770;8.944;2023-06-22T14:44:25;6.88;;;2.10;;
31128;SDS011;17777;48.770;8.944;2023-06-22T14:46:54;6.30;;;2.08;;
31128;SDS011;17777;48.770;8.944;2023-06-22T14:49:20;6.18;;;1.85;;
31128;SDS011;17777;48.770;8.944;2023-06-22T14:51:46;7.32;;;2.08;;
31128;SDS011;17777;48.770;8.944;2023-06-22T14:54:12;5.45;;;1.85;;